createdAt,value
2022-12-18T00:00:09.886Z,85.61
2022-12-18T00:02:44.215Z,85.66
2022-12-18T00:05:11.718Z,85.69
2022-12-18T00:07:39.098Z,85.70
2022-12-18T00:10:06.438Z,85.56
2022-12-18T00:12:33.328Z,85.63
2022-12-18T00:15:03.787Z,85.83
2022-12-18T00:17:30.606Z,85.56
2022-12-18T00:19:57.523Z,85.51
2022-12-18T00:22:24.231Z,85.60
2022-12-18T00:24:50.920Z,85.69
2022-12-18T00:27:17.599Z,85.57
2022-12-18T00:29:44.262Z,85.42
2022-12-18T00:32:11.082Z,85.46
2022-12-18T00:34:38.034Z,85.58
2022-12-18T00:37:04.773Z,85.33
2022-12-18T00:39:34.182Z,85.20
2022-12-18T00:42:19.744Z,85.21
2022-12-18T00:44:46.601Z,85.24
2022-12-18T00:47:13.503Z,85.00
2022-12-18T00:49:40.238Z,85.07
2022-12-18T00:52:09.531Z,85.21
2022-12-18T00:54:36.243Z,85.00
2022-12-18T00:57:03.776Z,85.06
2022-12-18T00:59:31.303Z,85.01
2022-12-18T01:01:58.350Z,84.76
2022-12-18T01:04:25.203Z,84.77
2022-12-18T01:06:52.040Z,84.78
2022-12-18T01:09:18.747Z,84.75
2022-12-18T01:11:45.444Z,84.79
2022-12-18T01:14:12.169Z,84.61
2022-12-18T01:16:42.094Z,84.74
2022-12-18T01:19:08.935Z,84.48
2022-12-18T01:21:35.676Z,84.68
2022-12-18T01:24:05.138Z,84.34
2022-12-18T01:26:31.945Z,84.59
2022-12-18T01:28:58.945Z,84.44
2022-12-18T01:31:28.522Z,84.40
2022-12-18T01:33:55.962Z,84.28
2022-12-18T01:36:28.982Z,84.20
2022-12-18T01:38:57.180Z,84.26
2022-12-18T01:41:51.904Z,84.07
2022-12-18T01:44:47.802Z,84.04
2022-12-18T01:47:33.050Z,84.01
2022-12-18T01:50:05.134Z,84.00
2022-12-18T01:52:36.457Z,83.81
2022-12-18T01:55:14.431Z,83.86
2022-12-18T01:57:44.137Z,83.89
2022-12-18T02:00:16.645Z,83.87
2022-12-18T02:02:50.272Z,83.81
2022-12-18T02:05:29.213Z,83.61
2022-12-18T02:08:13.777Z,83.59
2022-12-18T02:10:50.970Z,83.62
2022-12-18T02:13:41.073Z,83.68
2022-12-18T02:16:54.897Z,83.57
2022-12-18T02:19:46.292Z,83.79
2022-12-18T02:22:38.107Z,83.62
2022-12-18T02:25:44.368Z,83.74
2022-12-18T02:28:21.899Z,83.84
2022-12-18T02:30:54.405Z,83.95
2022-12-18T02:33:22.809Z,83.80
2022-12-18T02:35:55.684Z,83.88
2022-12-18T02:38:23.268Z,84.03
2022-12-18T02:40:54.216Z,83.82
2022-12-18T02:43:25.555Z,84.06
2022-12-18T02:45:58.702Z,84.00
2022-12-18T02:48:34.532Z,83.97
2022-12-18T02:51:10.174Z,83.94
2022-12-18T02:53:50.468Z,83.92
2022-12-18T02:56:23.693Z,83.95
2022-12-18T02:59:19.882Z,83.88
2022-12-18T03:02:21.063Z,83.76
2022-12-18T03:05:01.397Z,83.89
2022-12-18T03:07:52.966Z,83.70
2022-12-18T03:10:26.717Z,83.92
2022-12-18T03:12:57.706Z,83.99
2022-12-18T03:15:44.283Z,83.91
2022-12-18T03:18:35.858Z,83.73
2022-12-18T03:21:10.450Z,84.01
2022-12-18T03:23:48.878Z,83.81
2022-12-18T03:26:23.681Z,83.79
2022-12-18T03:28:57.340Z,83.72
2022-12-18T03:31:27.711Z,83.72
2022-12-18T03:34:02.727Z,83.92
2022-12-18T03:36:38.588Z,83.68
2022-12-18T03:41:50.065Z,83.81
2022-12-18T03:44:31.556Z,83.87
2022-12-18T03:49:51.726Z,83.89
2022-12-18T03:52:27.354Z,83.79
2022-12-18T03:54:56.150Z,83.78
2022-12-18T03:57:26.303Z,83.90
2022-12-18T04:00:01.631Z,83.88
2022-12-18T04:02:45.345Z,83.79
2022-12-18T04:05:15.760Z,83.71
2022-12-18T04:07:45.038Z,83.75
2022-12-18T04:10:14.084Z,83.68
2022-12-18T04:12:41.247Z,83.74
2022-12-18T04:15:12.558Z,83.58
2022-12-18T04:17:40.763Z,83.49
2022-12-18T04:20:08.508Z,83.56
2022-12-18T04:22:38.519Z,83.54
2022-12-18T04:25:05.947Z,83.64
2022-12-18T04:27:38.029Z,83.53
2022-12-18T04:30:06.730Z,83.51
2022-12-18T04:32:34.871Z,83.36
2022-12-18T04:35:01.863Z,83.63
2022-12-18T04:37:31.321Z,83.50
2022-12-18T04:39:58.065Z,83.33
2022-12-18T04:42:32.516Z,83.22
2022-12-18T04:44:59.470Z,83.38
2022-12-18T04:47:26.367Z,83.35
2022-12-18T04:49:53.224Z,83.39
2022-12-18T04:52:19.941Z,83.34
2022-12-18T04:54:46.679Z,83.51
2022-12-18T04:57:13.408Z,83.36
2022-12-18T04:59:41.048Z,83.33
2022-12-18T05:02:07.858Z,83.18
2022-12-18T05:04:34.854Z,83.31
2022-12-18T05:07:01.601Z,83.32
2022-12-18T05:09:28.331Z,83.26
2022-12-18T05:11:55.063Z,83.22
2022-12-18T05:14:22.137Z,83.02
2022-12-18T05:16:48.820Z,83.20
2022-12-18T05:19:15.534Z,83.20
2022-12-18T05:21:42.256Z,83.08
2022-12-18T05:24:09.209Z,82.92
2022-12-18T05:26:36.164Z,83.02
2022-12-18T05:29:02.879Z,83.13
2022-12-18T05:31:32.419Z,83.12
2022-12-18T05:34:02.700Z,82.94
2022-12-18T05:36:29.398Z,83.02
2022-12-18T05:38:56.191Z,83.02
2022-12-18T05:41:22.849Z,82.82
2022-12-18T05:43:49.603Z,82.88
2022-12-18T05:46:18.947Z,82.84
2022-12-18T05:48:46.315Z,82.95
2022-12-18T05:51:16.096Z,82.89
2022-12-18T05:53:43.475Z,82.84
2022-12-18T05:56:14.690Z,82.97
2022-12-18T05:58:44.900Z,82.88
2022-12-18T06:35:43.210Z,82.60
2022-12-18T06:45:56.230Z,82.57
2022-12-18T06:59:48.996Z,82.41
2022-12-18T07:02:30.408Z,82.51
2022-12-18T07:04:59.986Z,82.33
2022-12-18T07:07:26.725Z,82.44
2022-12-18T07:09:53.355Z,82.47
2022-12-18T07:12:20.144Z,82.38
2022-12-18T07:14:46.851Z,82.39
2022-12-18T07:17:13.512Z,82.25
2022-12-18T07:19:40.242Z,82.26
2022-12-18T07:22:07.022Z,82.39
2022-12-18T07:24:35.120Z,82.36
2022-12-18T07:27:03.237Z,82.50
2022-12-18T07:29:30.620Z,82.30
2022-12-18T07:31:58.069Z,82.51
2022-12-18T07:34:25.716Z,82.27
2022-12-18T07:36:52.648Z,82.38
2022-12-18T07:39:19.528Z,82.26
2022-12-18T07:42:09.636Z,82.28
2022-12-18T07:44:37.224Z,82.31
2022-12-18T07:47:07.765Z,82.34
2022-12-18T07:49:52.746Z,82.38
2022-12-18T07:52:25.903Z,82.41
2022-12-18T07:58:28.065Z,82.24
2022-12-18T08:04:12.556Z,82.28
2022-12-18T08:10:21.742Z,82.13
2022-12-18T08:12:52.589Z,82.32
2022-12-18T08:19:51.099Z,82.17
2022-12-18T08:22:51.303Z,82.38
2022-12-18T08:25:45.848Z,82.44
2022-12-18T08:28:31.945Z,82.40
2022-12-18T08:31:14.559Z,82.41
2022-12-18T08:37:43.039Z,82.44
2022-12-18T08:40:10.906Z,82.47
2022-12-18T08:42:56.752Z,82.58
2022-12-18T08:52:41.141Z,82.53
2022-12-18T08:55:14.245Z,82.45
2022-12-18T09:05:08.314Z,82.62
2022-12-18T09:07:21.499Z,82.63
2022-12-18T09:08:22.998Z,82.58
2022-12-18T09:11:20.623Z,82.50
2022-12-18T09:21:23.295Z,82.71
2022-12-18T09:23:59.532Z,82.58
2022-12-18T09:26:57.990Z,82.65
2022-12-18T09:29:25.033Z,82.92
2022-12-18T09:38:50.344Z,82.78
2022-12-18T09:41:37.200Z,82.92
2022-12-18T09:44:30.045Z,82.85
2022-12-18T09:47:12.765Z,82.92
2022-12-18T09:49:48.123Z,82.98
2022-12-18T09:52:25.129Z,83.08
2022-12-18T09:54:56.628Z,82.89
2022-12-18T09:57:26.837Z,82.99
2022-12-18T10:00:04.044Z,83.03
2022-12-18T10:02:38.435Z,83.21
2022-12-18T10:05:12.987Z,83.12
2022-12-18T10:08:07.148Z,83.06
2022-12-18T10:14:37.774Z,83.26
2022-12-18T10:24:13.109Z,83.23
2022-12-18T10:27:18.178Z,83.35
2022-12-18T10:37:25.638Z,83.45
2022-12-18T10:55:36.616Z,83.82
2022-12-18T11:35:22.534Z,84.23
2022-12-18T12:28:39.216Z,84.61
2022-12-18T12:31:49.852Z,84.57
2022-12-18T12:34:35.574Z,84.81
2022-12-18T12:38:06.392Z,84.94
2022-12-18T12:41:50.276Z,85.01
2022-12-18T12:44:32.964Z,85.19
2022-12-18T12:48:13.944Z,85.26
2022-12-18T12:50:41.470Z,85.35
2022-12-18T12:53:20.623Z,85.38
2022-12-18T12:56:34.423Z,85.26
2022-12-18T12:59:49.121Z,85.47
2022-12-18T13:02:36.140Z,85.37
2022-12-18T13:05:40.414Z,85.51
2022-12-18T14:22:33.268Z,84.69
2022-12-18T14:25:27.595Z,84.75
2022-12-18T14:28:29.583Z,84.69
2022-12-18T14:30:57.396Z,84.83
2022-12-18T14:33:28.777Z,84.93
2022-12-18T14:36:08.539Z,84.85
2022-12-18T14:38:45.542Z,84.77
2022-12-18T14:41:19.841Z,84.67
2022-12-18T14:46:48.552Z,84.73
2022-12-18T14:49:40.615Z,84.77
2022-12-18T15:40:04.093Z,85.37
2022-12-18T15:42:49.865Z,85.44
2022-12-18T15:46:15.432Z,85.25
2022-12-18T15:49:20.657Z,85.32
2022-12-18T16:03:17.689Z,85.34
2022-12-18T16:10:07.092Z,85.00
2022-12-18T16:15:54.141Z,85.11
2022-12-18T16:18:21.182Z,85.32
2022-12-18T16:20:47.865Z,85.28
2022-12-18T16:23:14.618Z,85.02
2022-12-18T16:25:41.404Z,85.08
2022-12-18T16:28:08.148Z,85.18
2022-12-18T16:30:38.549Z,85.14
2022-12-18T16:33:05.577Z,85.15
2022-12-18T16:35:34.527Z,84.92
2022-12-18T16:38:01.238Z,85.16
2022-12-18T16:40:27.964Z,84.98
2022-12-18T16:42:54.644Z,84.97
2022-12-18T16:45:21.467Z,84.96
2022-12-18T16:47:48.307Z,84.98
2022-12-18T16:50:15.119Z,85.03
2022-12-18T16:52:42.110Z,85.08
2022-12-18T16:55:09.318Z,85.16
2022-12-18T16:57:36.183Z,84.90
2022-12-18T17:00:06.060Z,84.87
2022-12-18T17:02:33.976Z,85.04
2022-12-18T17:05:01.001Z,84.84
2022-12-18T17:07:29.008Z,84.84
2022-12-18T17:09:55.949Z,84.90
2022-12-18T17:12:23.126Z,84.71
2022-12-18T17:14:50.098Z,84.91
2022-12-18T17:17:22.615Z,84.90
2022-12-18T17:19:51.038Z,84.94
2022-12-18T17:22:18.067Z,84.91
2022-12-18T17:24:44.828Z,84.83
2022-12-18T17:27:11.751Z,84.63
2022-12-18T17:29:43.814Z,84.66
2022-12-18T17:32:13.778Z,84.68
2022-12-18T17:34:40.908Z,84.62
2022-12-18T17:37:08.579Z,84.75
2022-12-18T17:39:35.357Z,84.50
2022-12-18T17:42:02.100Z,84.67
2022-12-18T17:44:28.864Z,84.50
2022-12-18T17:46:55.679Z,84.71
2022-12-18T17:49:22.401Z,84.70
2022-12-18T17:51:49.186Z,84.54
2022-12-18T17:54:16.014Z,84.70
2022-12-18T17:56:43.035Z,84.66
2022-12-18T17:59:10.941Z,84.58
2022-12-18T18:01:44.023Z,84.34
2022-12-18T18:04:11.845Z,84.61
2022-12-18T18:06:39.316Z,84.63
2022-12-18T18:09:10.329Z,84.56
2022-12-18T18:12:02.175Z,84.43
2022-12-18T18:14:29.177Z,84.40
2022-12-18T18:16:56.368Z,84.17
2022-12-18T18:19:25.206Z,84.25
2022-12-18T18:21:53.364Z,84.28
2022-12-18T18:24:23.573Z,84.37
2022-12-18T18:26:50.842Z,84.29
2022-12-18T18:29:25.805Z,84.21
2022-12-18T18:31:54.234Z,84.32
2022-12-18T18:34:25.912Z,84.25
2022-12-18T18:36:52.828Z,84.28
2022-12-18T18:39:19.846Z,84.02
2022-12-18T18:41:48.260Z,83.96
2022-12-18T18:44:16.204Z,84.21
2022-12-18T18:46:43.191Z,83.95
2022-12-18T18:49:10.588Z,84.05
2022-12-18T18:51:37.259Z,83.98
2022-12-18T18:54:04.296Z,84.15
2022-12-18T18:59:18.425Z,83.97
2022-12-18T19:01:45.576Z,83.94
2022-12-18T19:04:12.649Z,83.99
2022-12-18T19:06:39.428Z,83.90
2022-12-18T19:09:06.785Z,83.97
2022-12-18T19:11:52.535Z,83.91
2022-12-18T19:14:23.704Z,83.76
2022-12-18T19:16:50.633Z,83.76
2022-12-18T19:19:23.205Z,83.70
2022-12-18T19:21:50.208Z,83.56
2022-12-18T19:24:16.957Z,83.79
2022-12-18T19:26:44.123Z,83.80
2022-12-18T19:29:12.178Z,83.73
2022-12-18T19:31:40.762Z,83.71
2022-12-18T19:34:08.696Z,83.71
2022-12-18T19:36:37.589Z,83.57
2022-12-18T19:39:10.836Z,83.64
2022-12-18T19:42:36.490Z,83.54
2022-12-18T19:45:06.623Z,83.36
2022-12-18T19:47:33.592Z,83.40
2022-12-18T19:50:00.735Z,83.42
2022-12-18T19:52:27.580Z,83.36
2022-12-18T19:54:54.523Z,83.46
2022-12-18T19:57:21.267Z,83.40
2022-12-18T19:59:48.184Z,83.33
2022-12-18T20:02:16.078Z,83.45
2022-12-18T20:04:42.993Z,83.34
2022-12-18T20:07:09.763Z,83.31
2022-12-18T20:09:37.043Z,83.12
2022-12-18T20:12:04.822Z,83.28
2022-12-18T20:14:31.783Z,83.21
2022-12-18T20:16:58.605Z,83.07
2022-12-18T20:19:30.638Z,83.24
2022-12-18T20:21:57.932Z,82.98
2022-12-18T20:24:24.908Z,83.22
2022-12-18T20:26:52.437Z,82.99
2022-12-18T20:29:20.200Z,82.86
2022-12-18T20:31:47.571Z,83.06
2022-12-18T20:34:14.398Z,82.92
2022-12-18T20:36:41.950Z,83.04
2022-12-18T20:39:13.281Z,82.92
2022-12-18T20:41:41.215Z,83.01
2022-12-18T20:44:21.522Z,82.81
2022-12-18T20:46:52.505Z,82.97
2022-12-18T20:49:19.713Z,82.92
2022-12-18T20:51:49.976Z,82.75
2022-12-18T20:54:16.732Z,82.68
2022-12-18T20:56:46.637Z,82.82
2022-12-18T20:59:13.543Z,82.93
2022-12-18T21:01:44.008Z,82.71
2022-12-18T21:04:12.917Z,82.82
2022-12-18T21:06:40.033Z,82.56
2022-12-18T21:09:06.879Z,82.54
2022-12-18T21:11:53.163Z,82.71
2022-12-18T21:14:23.645Z,82.71
2022-12-18T21:16:51.066Z,82.50
2022-12-18T21:19:23.425Z,82.39
2022-12-18T21:21:51.200Z,82.62
2022-12-18T21:24:18.475Z,82.42
2022-12-18T21:26:47.161Z,82.49
2022-12-18T21:29:16.490Z,82.41
2022-12-18T21:31:43.733Z,82.39
2022-12-18T21:34:16.055Z,82.37
2022-12-18T21:36:42.799Z,82.36
2022-12-18T21:39:09.774Z,82.43
2022-12-18T21:41:55.430Z,82.49
2022-12-18T21:44:23.959Z,82.27
2022-12-18T21:46:56.761Z,82.28
2022-12-18T21:49:27.213Z,82.17
2022-12-18T21:51:56.111Z,82.22
2022-12-18T21:54:24.029Z,82.36
2022-12-18T21:56:56.372Z,82.12
2022-12-18T21:59:25.641Z,82.30
2022-12-18T22:01:53.466Z,82.19
2022-12-18T22:04:20.717Z,82.17
2022-12-18T22:06:48.693Z,82.17
2022-12-18T22:09:17.765Z,82.04
2022-12-18T22:11:45.178Z,82.22
2022-12-18T22:14:17.559Z,82.21
2022-12-18T22:16:47.766Z,82.24
2022-12-18T22:19:23.225Z,81.91
2022-12-18T22:21:52.291Z,82.09
2022-12-18T22:24:34.013Z,81.93
2022-12-18T22:27:02.134Z,81.84
2022-12-18T22:29:48.189Z,82.23
2022-12-18T22:32:21.422Z,81.84
2022-12-18T22:35:06.266Z,82.20
2022-12-18T22:37:40.953Z,81.92
2022-12-18T22:40:09.939Z,82.20
2022-12-18T22:42:39.714Z,81.97
2022-12-18T22:45:07.106Z,82.05
2022-12-18T22:47:33.986Z,82.07
2022-12-18T22:50:00.864Z,81.90
2022-12-18T22:52:27.720Z,81.97
2022-12-18T22:54:54.730Z,81.99
2022-12-18T22:57:23.261Z,81.76
2022-12-18T22:59:50.760Z,81.89
2022-12-18T23:02:19.172Z,81.97
2022-12-18T23:04:52.140Z,81.92
2022-12-18T23:07:19.245Z,82.00
2022-12-18T23:09:50.840Z,81.97
2022-12-18T23:12:28.195Z,81.72
2022-12-18T23:14:55.225Z,81.71
2022-12-18T23:17:22.027Z,81.96
2022-12-18T23:19:49.523Z,81.99
2022-12-18T23:22:19.768Z,81.93
2022-12-18T23:24:47.148Z,81.83
2022-12-18T23:27:15.977Z,81.97
2022-12-18T23:29:42.981Z,81.88
2022-12-18T23:32:12.022Z,81.82
2022-12-18T23:34:38.813Z,81.97
2022-12-18T23:37:08.241Z,81.99
2022-12-18T23:39:37.015Z,81.92
2022-12-18T23:42:03.902Z,81.78
2022-12-18T23:44:31.227Z,81.93
2022-12-18T23:46:59.570Z,81.77
2022-12-18T23:49:26.473Z,81.71
2022-12-18T23:51:54.775Z,81.65
2022-12-18T23:54:22.386Z,81.79
2022-12-18T23:57:00.284Z,81.84
2022-12-18T23:59:27.194Z,81.82
